createdAt,value
2022-10-05T00:01:30.330Z,42
2022-10-05T00:04:01.579Z,61
2022-10-05T00:06:32.155Z,67
2022-10-05T00:09:02.991Z,53
2022-10-05T00:11:32.308Z,43
2022-10-05T00:14:03.268Z,39
2022-10-05T00:16:35.358Z,37
2022-10-05T00:19:06.328Z,36
2022-10-05T00:21:37.212Z,27
2022-10-05T00:24:08.666Z,29
2022-10-05T00:26:39.636Z,30
2022-10-05T00:29:10.982Z,28
2022-10-05T00:31:44.747Z,29
2022-10-05T00:34:15.927Z,39
2022-10-05T00:36:49.632Z,36
2022-10-05T00:39:20.496Z,36
2022-10-05T00:41:51.211Z,29
2022-10-05T00:44:22.665Z,36
2022-10-05T00:46:54.710Z,37
2022-10-05T00:49:26.008Z,34
2022-10-05T00:51:57.163Z,32
2022-10-05T00:54:28.724Z,29
2022-10-05T00:56:59.735Z,35
2022-10-05T00:59:30.572Z,32
2022-10-05T01:02:02.051Z,29
2022-10-05T01:04:33.608Z,29
2022-10-05T01:07:06.543Z,21
2022-10-05T01:09:38.645Z,38
2022-10-05T01:12:11.219Z,25
2022-10-05T01:14:43.099Z,24
2022-10-05T01:17:14.286Z,24
2022-10-05T01:19:45.567Z,31
2022-10-05T01:22:16.562Z,28
2022-10-05T01:24:47.724Z,36
2022-10-05T01:27:18.918Z,28
2022-10-05T01:29:51.550Z,28
2022-10-05T01:32:22.961Z,29
2022-10-05T01:34:56.249Z,27
2022-10-05T01:37:27.276Z,28
2022-10-05T01:39:58.220Z,23
2022-10-05T01:42:29.731Z,27
2022-10-05T01:45:06.010Z,26
2022-10-05T01:47:36.922Z,31
2022-10-05T01:50:08.465Z,29
2022-10-05T01:52:39.496Z,28
2022-10-05T01:55:10.289Z,31
2022-10-05T01:57:41.907Z,28
2022-10-05T02:00:13.567Z,27
2022-10-05T02:02:44.416Z,27
2022-10-05T02:05:15.438Z,25
2022-10-05T02:07:46.642Z,23
2022-10-05T02:10:17.629Z,23
2022-10-05T02:12:49.194Z,32
2022-10-05T02:15:19.159Z,27
2022-10-05T02:17:50.527Z,23
2022-10-05T02:20:22.455Z,25
2022-10-05T02:22:53.658Z,28
2022-10-05T02:25:24.642Z,32
2022-10-05T02:27:56.485Z,24
2022-10-05T02:30:27.142Z,25
2022-10-05T02:32:58.184Z,32
2022-10-05T02:35:28.990Z,25
2022-10-05T02:37:59.623Z,20
2022-10-05T02:40:29.710Z,27
2022-10-05T02:43:00.910Z,28
2022-10-05T02:45:32.476Z,27
2022-10-05T02:48:01.978Z,23
2022-10-05T02:50:34.235Z,25
2022-10-05T02:53:05.464Z,29
2022-10-05T02:55:36.175Z,25
2022-10-05T02:58:07.420Z,22
2022-10-05T03:00:39.068Z,26
2022-10-05T03:03:10.191Z,22
2022-10-05T03:05:41.119Z,24
2022-10-05T03:08:12.028Z,20
2022-10-05T03:10:43.088Z,24
2022-10-05T03:13:14.064Z,28
2022-10-05T03:15:45.149Z,23
2022-10-05T03:18:14.689Z,21
2022-10-05T03:20:44.463Z,24
2022-10-05T03:23:14.918Z,23
2022-10-05T03:25:45.718Z,19
2022-10-05T03:28:17.852Z,20
2022-10-05T03:30:49.298Z,19
2022-10-05T03:33:21.006Z,32
2022-10-05T03:35:52.431Z,18
2022-10-05T03:38:24.102Z,25
2022-10-05T03:40:54.688Z,25
2022-10-05T03:43:25.858Z,16
2022-10-05T03:45:58.211Z,20
2022-10-05T03:48:29.874Z,16
2022-10-05T03:51:01.518Z,20
2022-10-05T03:53:32.464Z,22
2022-10-05T03:56:03.932Z,21
2022-10-05T03:58:35.025Z,20
2022-10-05T04:01:06.417Z,24
2022-10-05T04:03:37.020Z,18
2022-10-05T04:06:08.593Z,20
2022-10-05T04:08:39.631Z,20
2022-10-05T04:11:10.541Z,21
2022-10-05T04:13:42.300Z,19
2022-10-05T04:16:13.424Z,16
2022-10-05T04:18:44.574Z,24
2022-10-05T04:21:21.381Z,32
2022-10-05T04:23:48.043Z,29
2022-10-05T04:26:19.183Z,24
2022-10-05T04:28:49.166Z,33
2022-10-05T04:31:21.645Z,29
2022-10-05T04:33:52.255Z,32
2022-10-05T04:36:25.023Z,33
2022-10-05T04:38:56.262Z,33
2022-10-05T04:41:28.771Z,34
2022-10-05T04:43:59.708Z,39
2022-10-05T04:46:29.036Z,40
2022-10-05T04:49:02.092Z,37
2022-10-05T04:51:35.321Z,32
2022-10-05T04:54:06.066Z,51
2022-10-05T04:56:36.870Z,29
2022-10-05T04:59:08.790Z,27
2022-10-05T05:01:39.833Z,32
2022-10-05T05:04:11.996Z,34
2022-10-05T05:06:43.688Z,37
2022-10-05T05:09:14.210Z,36
2022-10-05T05:11:49.396Z,24
2022-10-05T05:14:21.464Z,30
2022-10-05T05:16:52.670Z,30
2022-10-05T05:19:23.829Z,32
2022-10-05T05:21:54.885Z,29
2022-10-05T05:24:25.603Z,28
2022-10-05T05:26:56.481Z,34
2022-10-05T05:29:28.568Z,36
2022-10-05T05:31:59.706Z,35
2022-10-05T05:34:30.430Z,33
2022-10-05T05:37:01.535Z,46
2022-10-05T05:39:33.022Z,27
2022-10-05T05:42:04.735Z,28
2022-10-05T05:44:38.688Z,33
2022-10-05T05:47:07.926Z,35
2022-10-05T05:49:38.870Z,36
2022-10-05T05:52:09.842Z,36
2022-10-05T05:54:40.697Z,41
2022-10-05T05:57:09.550Z,33
2022-10-05T05:59:40.266Z,34
2022-10-05T06:02:10.884Z,33
2022-10-05T06:04:41.356Z,50
2022-10-05T06:07:10.333Z,41
2022-10-05T06:09:41.661Z,38
2022-10-05T06:12:13.319Z,41
2022-10-05T06:14:44.696Z,40
2022-10-05T06:17:16.124Z,34
2022-10-05T06:19:49.826Z,35
2022-10-05T06:22:20.931Z,44
2022-10-05T06:24:52.212Z,47
2022-10-05T06:27:24.562Z,44
2022-10-05T06:29:55.491Z,41
2022-10-05T06:32:25.775Z,48
2022-10-05T06:34:57.207Z,47
2022-10-05T06:37:30.576Z,41
2022-10-05T06:40:01.583Z,40
2022-10-05T06:42:32.128Z,48
2022-10-05T06:45:04.556Z,36
2022-10-05T06:47:36.043Z,37
2022-10-05T06:50:07.455Z,44
2022-10-05T06:52:38.333Z,42
2022-10-05T06:55:13.981Z,43
2022-10-05T06:57:40.744Z,45
2022-10-05T07:00:13.568Z,44
2022-10-05T07:02:44.631Z,43
2022-10-05T07:05:17.271Z,44
2022-10-05T07:07:47.674Z,44
2022-10-05T07:10:18.637Z,46
2022-10-05T07:12:50.003Z,45
2022-10-05T07:15:20.987Z,51
2022-10-05T07:17:52.326Z,50
2022-10-05T07:20:23.307Z,45
2022-10-05T07:22:53.488Z,45
2022-10-05T07:25:25.292Z,45
2022-10-05T07:27:56.184Z,52
2022-10-05T07:30:27.220Z,49
2022-10-05T07:32:58.433Z,47
2022-10-05T07:35:27.504Z,58
2022-10-05T07:37:58.424Z,41
2022-10-05T07:40:29.295Z,46
2022-10-05T07:42:59.768Z,47
2022-10-05T07:45:30.469Z,56
2022-10-05T07:48:03.544Z,43
2022-10-05T07:50:34.023Z,46
2022-10-05T07:53:05.091Z,45
2022-10-05T07:55:37.302Z,49
2022-10-05T07:58:07.697Z,41
2022-10-05T08:00:38.127Z,46
2022-10-05T08:03:08.863Z,45
2022-10-05T08:05:39.490Z,42
2022-10-05T08:08:10.587Z,44
2022-10-05T08:10:42.073Z,39
2022-10-05T08:13:13.345Z,39
2022-10-05T08:15:44.349Z,45
2022-10-05T08:18:15.247Z,40
2022-10-05T08:20:47.902Z,32
2022-10-05T08:23:19.918Z,34
2022-10-05T08:25:51.351Z,37
2022-10-05T08:28:22.139Z,33
2022-10-05T08:30:53.224Z,50
2022-10-05T08:33:26.327Z,33
2022-10-05T08:35:59.662Z,36
2022-10-05T08:38:30.434Z,41
2022-10-05T08:41:01.124Z,36
2022-10-05T08:43:35.248Z,39
2022-10-05T08:46:03.564Z,36
2022-10-05T08:48:36.234Z,30
2022-10-05T08:51:06.929Z,33
2022-10-05T08:53:37.702Z,36
2022-10-05T08:56:08.531Z,41
2022-10-05T08:58:39.306Z,40
2022-10-05T09:01:10.172Z,41
2022-10-05T09:03:39.333Z,35
2022-10-05T09:06:09.900Z,36
2022-10-05T09:08:40.060Z,34
2022-10-05T09:11:13.416Z,31
2022-10-05T09:13:44.406Z,30
2022-10-05T09:16:14.841Z,29
2022-10-05T09:18:45.346Z,32
2022-10-05T09:21:17.367Z,30
2022-10-05T09:23:48.204Z,31
2022-10-05T09:26:19.631Z,21
2022-10-05T09:28:52.335Z,28
2022-10-05T09:31:23.516Z,29
2022-10-05T09:33:54.517Z,28
2022-10-05T09:36:24.998Z,23
2022-10-05T09:38:55.723Z,23
2022-10-05T09:41:26.413Z,27
2022-10-05T09:43:59.347Z,27
2022-10-05T09:46:30.922Z,24
2022-10-05T09:49:01.943Z,25
2022-10-05T09:51:32.570Z,35
2022-10-05T09:54:05.171Z,19
2022-10-05T09:56:38.314Z,24
2022-10-05T09:59:09.194Z,24
2022-10-05T10:01:41.685Z,21
2022-10-05T10:04:13.356Z,26
2022-10-05T10:06:43.912Z,24
2022-10-05T10:09:15.243Z,16
2022-10-05T10:11:46.596Z,18
2022-10-05T10:14:15.182Z,20
2022-10-05T10:16:46.797Z,16
2022-10-05T10:19:17.514Z,16
2022-10-05T10:21:49.066Z,20
2022-10-05T10:24:19.803Z,25
2022-10-05T10:26:52.379Z,17
2022-10-05T10:29:23.502Z,17
2022-10-05T10:31:54.252Z,21
2022-10-05T10:34:24.783Z,21
2022-10-05T10:36:55.882Z,20
2022-10-05T10:39:26.769Z,12
2022-10-05T10:41:58.485Z,17
2022-10-05T10:44:28.248Z,17
2022-10-05T10:46:59.007Z,19
2022-10-05T10:49:29.655Z,15
2022-10-05T10:52:00.836Z,17
2022-10-05T10:54:31.352Z,17
2022-10-05T10:57:02.610Z,11
2022-10-05T10:59:33.449Z,20
2022-10-05T11:02:04.889Z,16
2022-10-05T11:04:37.703Z,19
2022-10-05T11:07:08.263Z,19
2022-10-05T11:09:39.078Z,15
2022-10-05T11:12:10.324Z,16
2022-10-05T11:14:42.139Z,16
2022-10-05T11:17:12.307Z,15
2022-10-05T11:19:59.435Z,19
2022-10-05T11:22:14.539Z,16
2022-10-05T11:24:45.159Z,15
2022-10-05T11:27:16.516Z,18
2022-10-05T11:29:46.641Z,16
2022-10-05T11:32:16.868Z,15
2022-10-05T11:34:47.747Z,17
2022-10-05T11:37:20.185Z,21
2022-10-05T11:39:51.511Z,17
2022-10-05T11:42:22.806Z,12
2022-10-05T11:44:53.697Z,15
2022-10-05T11:47:25.270Z,12
2022-10-05T11:49:56.071Z,16
2022-10-05T11:52:27.250Z,14
2022-10-05T11:55:10.199Z,28
2022-10-05T11:57:29.845Z,16
2022-10-05T11:59:59.093Z,20
2022-10-05T12:02:29.863Z,17
2022-10-05T12:05:00.885Z,15
2022-10-05T12:07:32.052Z,15
2022-10-05T12:10:03.052Z,20
2022-10-05T12:12:33.739Z,42
2022-10-05T12:15:04.149Z,19
2022-10-05T12:17:35.537Z,14
2022-10-05T12:20:06.438Z,17
2022-10-05T12:22:38.493Z,16
2022-10-05T12:25:13.135Z,16
2022-10-05T12:27:44.649Z,12
2022-10-05T12:30:15.571Z,16
2022-10-05T12:32:46.827Z,16
2022-10-05T12:35:29.888Z,13
2022-10-05T12:37:50.191Z,13
2022-10-05T12:40:21.297Z,13
2022-10-05T12:42:52.601Z,17
2022-10-05T12:45:29.329Z,8
2022-10-05T12:47:59.660Z,12
2022-10-05T12:50:30.552Z,15
2022-10-05T12:53:01.602Z,12
2022-10-05T12:55:33.685Z,13
2022-10-05T12:58:04.617Z,15
2022-10-05T13:00:35.858Z,17
2022-10-05T13:03:06.837Z,17
2022-10-05T13:05:37.884Z,13
2022-10-05T13:08:09.681Z,16
2022-10-05T13:10:40.525Z,13
2022-10-05T13:13:11.718Z,15
2022-10-05T13:15:42.516Z,15
2022-10-05T13:18:14.478Z,12
2022-10-05T13:20:45.564Z,13
2022-10-05T13:23:16.517Z,15
2022-10-05T13:25:48.013Z,20
2022-10-05T13:28:21.566Z,63
2022-10-05T13:30:52.143Z,51
2022-10-05T13:33:23.530Z,15
2022-10-05T13:35:54.745Z,22
2022-10-05T13:38:25.629Z,13
2022-10-05T13:40:56.604Z,16
2022-10-05T13:43:27.275Z,16
2022-10-05T13:45:58.606Z,25
2022-10-05T13:48:29.790Z,19
2022-10-05T13:51:01.175Z,19
2022-10-05T13:53:32.168Z,20
2022-10-05T13:56:03.147Z,19
2022-10-05T13:58:34.020Z,21
2022-10-05T14:01:04.782Z,20
2022-10-05T14:03:36.509Z,26
2022-10-05T14:06:07.671Z,35
2022-10-05T14:08:39.173Z,32
2022-10-05T14:11:11.736Z,23
2022-10-05T14:13:44.748Z,15
2022-10-05T14:16:18.279Z,28
2022-10-05T14:18:50.321Z,20
2022-10-05T14:21:21.737Z,20
2022-10-05T14:23:51.471Z,19
2022-10-05T14:26:23.547Z,16
2022-10-05T14:28:54.905Z,20
2022-10-05T14:31:27.042Z,16
2022-10-05T14:33:58.809Z,16
2022-10-05T14:36:30.170Z,16
2022-10-05T14:39:02.191Z,14
2022-10-05T14:41:33.272Z,16
2022-10-05T14:44:07.429Z,12
2022-10-05T14:46:40.427Z,12
2022-10-05T14:49:11.679Z,27
2022-10-05T14:51:43.420Z,16
2022-10-05T14:54:15.261Z,18
2022-10-05T14:56:49.292Z,16
2022-10-05T14:59:21.803Z,23
2022-10-05T15:01:52.905Z,48
2022-10-05T15:04:24.417Z,38
2022-10-05T15:06:55.841Z,16
2022-10-05T15:09:25.565Z,16
2022-10-05T15:11:57.340Z,15
2022-10-05T15:14:29.017Z,16
2022-10-05T15:17:01.108Z,16
2022-10-05T15:19:32.597Z,15
2022-10-05T15:22:04.225Z,16
2022-10-05T15:24:38.957Z,18
2022-10-05T15:27:07.539Z,16
2022-10-05T15:29:38.927Z,17
2022-10-05T15:32:09.901Z,16
2022-10-05T15:34:41.300Z,16
2022-10-05T15:37:13.576Z,20
2022-10-05T15:39:45.203Z,19
2022-10-05T15:42:17.310Z,20
2022-10-05T15:44:48.992Z,16
2022-10-05T15:47:21.449Z,24
2022-10-05T15:49:52.961Z,20
2022-10-05T15:52:24.160Z,20
2022-10-05T15:54:56.413Z,16
2022-10-05T15:57:28.315Z,21
2022-10-05T16:00:01.207Z,21
2022-10-05T16:02:31.384Z,24
2022-10-05T16:05:04.880Z,23
2022-10-05T16:07:35.307Z,24
2022-10-05T16:10:07.021Z,25
2022-10-05T16:12:38.247Z,31
2022-10-05T16:15:10.001Z,25
2022-10-05T16:17:41.690Z,28
2022-10-05T16:20:13.546Z,29
2022-10-05T16:22:47.313Z,24
2022-10-05T16:25:17.403Z,28
2022-10-05T16:27:48.522Z,27
2022-10-05T16:30:19.843Z,32
2022-10-05T16:32:52.712Z,28
2022-10-05T16:35:24.149Z,31
2022-10-05T16:37:55.820Z,31
2022-10-05T16:40:28.048Z,31
2022-10-05T16:42:59.195Z,27
2022-10-05T16:45:30.282Z,32
2022-10-05T16:48:02.213Z,37
2022-10-05T16:50:33.237Z,33
2022-10-05T16:53:06.453Z,37
2022-10-05T16:55:37.789Z,34
2022-10-05T16:58:09.357Z,43
2022-10-05T17:00:41.048Z,42
2022-10-05T17:03:12.388Z,44
2022-10-05T17:05:43.721Z,45
2022-10-05T17:08:16.355Z,56
2022-10-05T17:10:47.896Z,52
2022-10-05T17:13:20.179Z,52
2022-10-05T17:15:50.417Z,48
2022-10-05T17:18:22.059Z,51
2022-10-05T17:20:52.482Z,62
2022-10-05T17:23:24.591Z,56
2022-10-05T17:25:56.901Z,60
2022-10-05T17:28:29.697Z,57
2022-10-05T17:31:01.051Z,63
2022-10-05T17:33:33.549Z,63
2022-10-05T17:36:06.100Z,56
2022-10-05T17:38:37.367Z,61
2022-10-05T17:41:09.428Z,60
2022-10-05T17:43:40.919Z,54
2022-10-05T17:46:13.398Z,64
2022-10-05T17:48:45.754Z,54
2022-10-05T17:51:17.219Z,61
2022-10-05T17:53:48.093Z,56
2022-10-05T17:56:20.320Z,56
2022-10-05T17:58:52.397Z,54
2022-10-05T18:01:22.575Z,51
2022-10-05T18:03:55.173Z,52
2022-10-05T18:06:29.599Z,51
2022-10-05T18:09:01.170Z,48
2022-10-05T18:11:32.599Z,48
2022-10-05T18:14:02.350Z,52
2022-10-05T18:16:34.376Z,56
2022-10-05T18:19:06.134Z,58
2022-10-05T18:21:37.565Z,69
2022-10-05T18:24:09.954Z,60
2022-10-05T18:26:40.719Z,66
2022-10-05T18:29:12.903Z,68
2022-10-05T18:31:47.687Z,61
2022-10-05T18:34:19.963Z,53
2022-10-05T18:36:51.415Z,64
2022-10-05T18:39:22.867Z,54
2022-10-05T18:41:57.398Z,54
2022-10-05T18:44:29.571Z,64
2022-10-05T18:47:01.337Z,64
2022-10-05T18:49:34.017Z,76
2022-10-05T18:52:06.015Z,69
2022-10-05T18:54:38.170Z,65
2022-10-05T18:57:09.937Z,67
2022-10-05T18:59:41.585Z,76
2022-10-05T19:02:13.511Z,72
2022-10-05T19:04:45.289Z,71
2022-10-05T19:07:16.599Z,68
2022-10-05T19:09:48.224Z,64
2022-10-05T19:12:19.660Z,62
2022-10-05T19:14:51.631Z,63
2022-10-05T19:17:23.016Z,61
2022-10-05T19:19:54.770Z,62
2022-10-05T19:22:26.491Z,64
2022-10-05T19:25:00.674Z,64
2022-10-05T19:27:32.514Z,69
2022-10-05T19:30:04.081Z,66
2022-10-05T19:32:36.304Z,58
2022-10-05T19:35:09.429Z,61
2022-10-05T19:37:42.081Z,64
2022-10-05T19:40:13.667Z,55
2022-10-05T19:42:45.149Z,62
2022-10-05T19:45:16.881Z,76
2022-10-05T19:47:50.506Z,78
2022-10-05T19:50:22.466Z,65
2022-10-05T19:52:53.600Z,66
2022-10-05T19:55:25.634Z,60
2022-10-05T19:57:58.466Z,58
2022-10-05T20:00:30.242Z,52
2022-10-05T20:03:05.532Z,56
2022-10-05T20:05:37.766Z,56
2022-10-05T20:08:11.705Z,56
2022-10-05T20:10:47.116Z,52
2022-10-05T20:13:24.704Z,52
2022-10-05T20:15:57.528Z,53
2022-10-05T20:18:29.612Z,52
2022-10-05T20:21:03.698Z,50
2022-10-05T20:23:36.830Z,48
2022-10-05T20:26:09.526Z,51
2022-10-05T20:28:41.088Z,54
2022-10-05T20:31:13.938Z,56
2022-10-05T20:33:46.723Z,52
2022-10-05T20:36:17.871Z,65
2022-10-05T20:38:51.171Z,49
2022-10-05T20:41:26.181Z,53
2022-10-05T20:43:59.036Z,55
2022-10-05T20:46:33.151Z,55
2022-10-05T20:49:08.066Z,52
2022-10-05T20:51:40.050Z,56
2022-10-05T20:54:14.441Z,52
2022-10-05T20:56:46.351Z,60
2022-10-05T20:59:18.107Z,52
2022-10-05T21:01:49.367Z,56
2022-10-05T21:04:20.992Z,55
2022-10-05T21:06:54.316Z,49
2022-10-05T21:09:25.866Z,57
2022-10-05T21:11:57.071Z,53
2022-10-05T21:14:31.486Z,58
2022-10-05T21:17:09.064Z,56
2022-10-05T21:19:41.715Z,63
2022-10-05T21:22:14.445Z,58
2022-10-05T21:24:46.231Z,56
2022-10-05T21:27:19.544Z,61
2022-10-05T21:29:55.647Z,56
2022-10-05T21:32:28.246Z,61
2022-10-05T21:34:58.591Z,64
2022-10-05T21:37:29.841Z,58
2022-10-05T21:40:02.161Z,56
2022-10-05T21:42:35.454Z,55
2022-10-05T21:45:08.384Z,59
2022-10-05T21:47:41.836Z,61
2022-10-05T21:50:15.735Z,57
2022-10-05T21:52:50.925Z,56
2022-10-05T21:55:23.311Z,57
2022-10-05T21:57:56.771Z,58
2022-10-05T22:00:28.566Z,57
2022-10-05T22:03:02.314Z,63
2022-10-05T22:05:33.371Z,56
2022-10-05T22:08:05.523Z,54
2022-10-05T22:10:36.478Z,58
2022-10-05T22:13:07.577Z,60
2022-10-05T22:15:38.548Z,60
2022-10-05T22:18:12.557Z,60
2022-10-05T22:20:44.423Z,60
2022-10-05T22:23:15.533Z,51
2022-10-05T22:25:46.336Z,56
2022-10-05T22:28:15.730Z,52
2022-10-05T22:30:46.824Z,56
2022-10-05T22:33:20.114Z,48
2022-10-05T22:35:51.981Z,43
2022-10-05T22:38:23.468Z,51
2022-10-05T22:40:54.346Z,48
2022-10-05T22:43:25.641Z,52
2022-10-05T22:46:01.330Z,52
2022-10-05T22:48:30.970Z,54
2022-10-05T22:51:03.051Z,48
2022-10-05T22:53:33.767Z,49
2022-10-05T22:56:05.111Z,48
2022-10-05T22:58:35.977Z,48
2022-10-05T23:01:08.248Z,47
2022-10-05T23:03:38.714Z,44
2022-10-05T23:06:09.804Z,46
2022-10-05T23:08:40.944Z,50
2022-10-05T23:11:12.178Z,49
2022-10-05T23:13:41.888Z,48
2022-10-05T23:16:13.267Z,45
2022-10-05T23:18:43.899Z,46
2022-10-05T23:21:14.790Z,45
2022-10-05T23:23:45.537Z,51
2022-10-05T23:26:17.509Z,44
2022-10-05T23:28:48.700Z,40
2022-10-05T23:31:22.040Z,41
2022-10-05T23:33:53.268Z,44
2022-10-05T23:36:24.345Z,43
2022-10-05T23:38:54.841Z,37
2022-10-05T23:41:26.065Z,44
2022-10-05T23:44:00.687Z,38
2022-10-05T23:46:31.375Z,41
2022-10-05T23:49:03.001Z,44
2022-10-05T23:51:34.624Z,41
2022-10-05T23:54:05.533Z,40
2022-10-05T23:56:36.269Z,42
2022-10-05T23:59:08.126Z,36
